createdAt,value
2023-04-06T00:01:34.076Z,2.47
2023-04-06T00:04:04.141Z,2.70
2023-04-06T00:06:32.805Z,2.90
2023-04-06T00:09:02.732Z,3.20
2023-04-06T00:11:31.520Z,2.80
2023-04-06T00:14:00.806Z,3.57
2023-04-06T00:16:30.951Z,2.80
2023-04-06T00:18:59.377Z,3.63
2023-04-06T00:21:28.095Z,3.17
2023-04-06T00:23:56.541Z,3.00
2023-04-06T00:26:26.213Z,3.10
2023-04-06T00:28:56.711Z,2.60
2023-04-06T00:31:24.972Z,3.27
2023-04-06T00:33:56.149Z,2.90
2023-04-06T00:36:24.671Z,2.20
2023-04-06T00:38:53.216Z,2.90
2023-04-06T00:41:22.434Z,2.73
2023-04-06T00:43:51.919Z,3.20
2023-04-06T00:46:21.101Z,2.80
2023-04-06T00:48:49.725Z,2.77
2023-04-06T00:51:18.084Z,3.00
2023-04-06T00:53:47.282Z,2.70
2023-04-06T00:56:15.479Z,3.30
2023-04-06T00:58:52.861Z,3.60
2023-04-06T01:01:22.194Z,3.20
2023-04-06T01:03:52.667Z,3.30
2023-04-06T01:06:22.542Z,2.80
2023-04-06T01:08:59.099Z,2.37
2023-04-06T01:11:28.778Z,2.60
2023-04-06T01:13:58.224Z,2.37
2023-04-06T01:16:29.696Z,3.20
2023-04-06T01:19:25.824Z,3.40
2023-04-06T01:21:57.067Z,2.40
2023-04-06T01:24:33.434Z,2.60
2023-04-06T01:27:10.742Z,3.60
2023-04-06T01:30:00.249Z,3.33
2023-04-06T01:32:51.723Z,3.50
2023-04-06T01:35:30.488Z,3.20
2023-04-06T01:38:14.377Z,3.57
2023-04-06T01:40:44.275Z,3.10
2023-04-06T01:43:12.433Z,3.50
2023-04-06T01:46:18.615Z,3.30
2023-04-06T01:48:46.934Z,3.10
2023-04-06T01:51:32.911Z,3.43
2023-04-06T01:54:03.372Z,3.80
2023-04-06T01:56:53.596Z,3.83
2023-04-06T01:59:34.837Z,3.13
2023-04-06T02:02:09.394Z,3.63
2023-04-06T02:04:39.353Z,2.90
2023-04-06T02:07:13.983Z,3.33
2023-04-06T02:09:42.340Z,3.13
2023-04-06T02:12:17.754Z,3.13
2023-04-06T02:14:45.995Z,4.00
2023-04-06T02:17:14.140Z,3.03
2023-04-06T02:19:42.271Z,3.60
2023-04-06T02:22:11.015Z,3.03
2023-04-06T02:24:39.021Z,3.30
2023-04-06T02:27:07.291Z,3.50
2023-04-06T02:29:36.611Z,3.93
2023-04-06T02:32:06.658Z,3.47
2023-04-06T02:34:34.967Z,3.57
2023-04-06T02:37:03.076Z,3.00
2023-04-06T02:39:31.930Z,3.77
2023-04-06T02:42:00.941Z,3.70
2023-04-06T02:44:29.411Z,3.03
2023-04-06T02:47:01.298Z,3.33
2023-04-06T02:49:29.450Z,3.50
2023-04-06T02:51:59.982Z,3.20
2023-04-06T02:54:35.161Z,3.33
2023-04-06T02:57:07.452Z,3.00
2023-04-06T02:59:41.513Z,3.00
2023-04-06T03:02:18.224Z,3.03
2023-04-06T03:04:49.031Z,2.80
2023-04-06T03:07:26.190Z,3.20
2023-04-06T03:09:54.284Z,2.80
2023-04-06T03:12:22.898Z,2.63
2023-04-06T03:15:12.606Z,3.40
2023-04-06T03:17:46.480Z,3.00
2023-04-06T03:20:29.237Z,3.33
2023-04-06T03:22:57.619Z,3.87
2023-04-06T03:25:31.099Z,3.23
2023-04-06T03:28:03.557Z,3.30
2023-04-06T03:30:33.503Z,3.93
2023-04-06T03:33:05.083Z,3.60
2023-04-06T03:35:38.412Z,3.30
2023-04-06T03:38:07.362Z,4.00
2023-04-06T03:40:35.566Z,3.53
2023-04-06T03:43:05.021Z,3.60
2023-04-06T03:45:36.746Z,3.80
2023-04-06T03:48:09.786Z,4.07
2023-04-06T03:50:39.746Z,4.00
2023-04-06T03:53:08.147Z,3.87
2023-04-06T03:55:36.526Z,3.90
2023-04-06T03:58:05.455Z,3.70
2023-04-06T04:00:33.939Z,3.40
2023-04-06T04:03:03.486Z,4.50
2023-04-06T04:05:33.102Z,3.90
2023-04-06T04:08:02.527Z,4.40
2023-04-06T04:10:30.513Z,4.50
2023-04-06T04:12:58.976Z,3.60
2023-04-06T04:15:27.105Z,4.27
2023-04-06T04:17:55.227Z,3.80
2023-04-06T04:20:23.692Z,3.87
2023-04-06T04:22:53.096Z,3.97
2023-04-06T04:25:21.265Z,4.10
2023-04-06T04:27:53.030Z,4.13
2023-04-06T04:30:24.677Z,3.97
2023-04-06T04:32:56.619Z,4.40
2023-04-06T04:35:29.056Z,4.57
2023-04-06T04:37:59.321Z,3.47
2023-04-06T04:40:27.897Z,4.83
2023-04-06T04:43:04.706Z,3.70
2023-04-06T04:45:35.869Z,4.27
2023-04-06T04:48:30.929Z,4.07
2023-04-06T04:51:02.813Z,3.90
2023-04-06T04:53:45.053Z,3.30
2023-04-06T04:56:21.653Z,4.03
2023-04-06T04:58:54.652Z,3.77
2023-04-06T05:01:23.880Z,3.63
2023-04-06T05:03:52.958Z,4.07
2023-04-06T05:06:21.232Z,3.93
2023-04-06T05:08:52.019Z,3.57
2023-04-06T05:11:20.112Z,4.30
2023-04-06T05:13:56.117Z,3.70
2023-04-06T05:16:27.117Z,3.77
2023-04-06T05:18:57.783Z,3.90
2023-04-06T05:21:29.232Z,3.63
2023-04-06T05:24:09.633Z,4.40
2023-04-06T05:26:38.591Z,4.10
2023-04-06T05:29:14.468Z,5.00
2023-04-06T05:31:43.241Z,4.17
2023-04-06T05:34:12.044Z,4.23
2023-04-06T05:36:42.010Z,4.23
2023-04-06T05:39:20.509Z,4.33
2023-04-06T05:41:53.412Z,4.13
2023-04-06T05:44:32.422Z,3.87
2023-04-06T05:47:09.269Z,3.97
2023-04-06T05:49:38.892Z,3.87
2023-04-06T05:52:12.964Z,3.70
2023-04-06T05:54:47.243Z,5.13
2023-04-06T05:57:15.795Z,4.60
2023-04-06T05:59:44.655Z,4.07
2023-04-06T06:02:16.333Z,4.00
2023-04-06T06:04:48.483Z,4.20
2023-04-06T06:07:19.471Z,4.03
2023-04-06T06:10:00.576Z,5.43
2023-04-06T06:12:41.401Z,4.27
2023-04-06T06:15:10.596Z,4.83
2023-04-06T06:17:47.843Z,4.40
2023-04-06T06:20:16.549Z,4.63
2023-04-06T06:22:47.464Z,4.50
2023-04-06T06:25:22.473Z,4.73
2023-04-06T06:27:51.784Z,5.47
2023-04-06T06:30:23.061Z,4.27
2023-04-06T06:32:53.592Z,4.73
2023-04-06T06:35:22.178Z,5.07
2023-04-06T06:37:52.684Z,5.40
2023-04-06T06:40:27.067Z,5.03
2023-04-06T06:42:56.563Z,4.63
2023-04-06T06:45:33.179Z,5.43
2023-04-06T06:48:04.101Z,5.70
2023-04-06T06:50:34.964Z,4.70
2023-04-06T06:53:03.619Z,5.17
2023-04-06T06:55:33.309Z,5.93
2023-04-06T06:58:02.100Z,5.60
2023-04-06T07:00:30.547Z,6.20
2023-04-06T07:03:01.348Z,6.50
2023-04-06T07:05:29.555Z,6.20
2023-04-06T07:07:59.782Z,6.83
2023-04-06T07:10:28.364Z,6.17
2023-04-06T07:12:58.276Z,7.30
2023-04-06T07:15:28.747Z,7.37
2023-04-06T07:17:57.327Z,7.10
2023-04-06T07:20:26.102Z,7.03
2023-04-06T07:22:54.767Z,7.67
2023-04-06T07:25:25.591Z,6.43
2023-04-06T07:27:53.994Z,6.07
2023-04-06T07:30:29.009Z,7.33
2023-04-06T07:32:59.933Z,6.63
2023-04-06T07:35:31.177Z,6.07
2023-04-06T07:38:00.197Z,7.27
2023-04-06T07:40:28.839Z,7.40
2023-04-06T07:42:58.799Z,6.50
2023-04-06T07:45:30.653Z,6.53
2023-04-06T07:47:59.657Z,7.83
2023-04-06T07:50:29.299Z,6.40
2023-04-06T07:52:58.730Z,9.03
2023-04-06T07:55:30.579Z,7.87
2023-04-06T07:57:58.869Z,6.40
2023-04-06T08:00:28.250Z,6.27
2023-04-06T08:02:59.737Z,6.20
2023-04-06T08:05:28.421Z,6.77
2023-04-06T08:07:56.701Z,10.37
2023-04-06T08:10:27.059Z,6.27
2023-04-06T08:12:55.787Z,5.90
2023-04-06T08:15:24.971Z,6.17
2023-04-06T08:17:53.672Z,5.13
2023-04-06T08:20:25.477Z,5.90
2023-04-06T08:22:59.108Z,6.07
2023-04-06T08:25:28.796Z,5.50
2023-04-06T08:27:58.855Z,5.67
2023-04-06T08:30:28.350Z,5.80
2023-04-06T08:32:56.714Z,5.63
2023-04-06T08:35:27.357Z,6.13
2023-04-06T08:37:55.824Z,6.20
2023-04-06T08:40:26.796Z,5.87
2023-04-06T08:42:59.228Z,5.70
2023-04-06T08:45:27.689Z,5.80
2023-04-06T08:47:56.917Z,6.20
2023-04-06T08:50:27.625Z,5.50
2023-04-06T08:52:56.957Z,6.57
2023-04-06T08:55:29.092Z,6.50
2023-04-06T08:58:03.181Z,5.80
2023-04-06T09:00:34.048Z,6.80
2023-04-06T09:03:02.563Z,6.07
2023-04-06T09:05:32.050Z,6.23
2023-04-06T09:08:00.553Z,6.33
2023-04-06T09:10:29.767Z,6.10
2023-04-06T09:13:06.452Z,6.47
2023-04-06T09:15:36.303Z,5.20
2023-04-06T09:18:07.848Z,5.53
2023-04-06T09:20:37.472Z,5.80
2023-04-06T09:23:05.964Z,4.83
2023-04-06T09:25:34.600Z,5.53
2023-04-06T09:28:04.633Z,5.00
2023-04-06T09:30:33.239Z,5.57
2023-04-06T09:33:01.640Z,4.80
2023-04-06T09:35:32.192Z,5.63
2023-04-06T09:38:13.020Z,5.07
2023-04-06T09:41:00.209Z,5.20
2023-04-06T09:43:30.130Z,4.83
2023-04-06T09:45:58.715Z,4.70
2023-04-06T09:48:29.543Z,5.13
2023-04-06T09:51:05.240Z,5.63
2023-04-06T09:53:41.457Z,6.73
2023-04-06T09:56:14.813Z,6.90
2023-04-06T09:58:49.153Z,6.17
2023-04-06T10:01:26.977Z,5.70
2023-04-06T10:04:01.857Z,5.43
2023-04-06T10:06:37.215Z,5.83
2023-04-06T10:09:10.779Z,5.40
2023-04-06T10:11:39.688Z,6.60
2023-04-06T10:14:08.463Z,5.83
2023-04-06T10:16:36.899Z,5.30
2023-04-06T10:19:12.430Z,5.63
2023-04-06T10:21:42.549Z,7.67
2023-04-06T10:24:14.168Z,5.03
2023-04-06T10:26:42.182Z,6.70
2023-04-06T10:29:12.934Z,5.53
2023-04-06T10:31:45.314Z,6.13
2023-04-06T10:34:13.463Z,5.03
2023-04-06T10:36:42.108Z,6.43
2023-04-06T10:39:10.309Z,5.67
2023-04-06T10:41:45.862Z,6.40
2023-04-06T10:44:22.011Z,6.10
2023-04-06T10:47:01.379Z,7.00
2023-04-06T10:49:32.496Z,6.23
2023-04-06T10:52:00.716Z,6.30
2023-04-06T10:54:31.105Z,5.23
2023-04-06T10:57:01.936Z,6.77
2023-04-06T10:59:31.745Z,6.47
2023-04-06T11:01:59.794Z,6.50
2023-04-06T11:04:30.376Z,7.27
2023-04-06T11:07:00.987Z,8.23
2023-04-06T11:09:33.144Z,7.20
2023-04-06T11:12:02.827Z,5.77
2023-04-06T11:14:32.955Z,5.93
2023-04-06T11:17:01.085Z,6.37
2023-04-06T11:19:29.897Z,6.60
2023-04-06T11:22:08.956Z,7.57
2023-04-06T11:24:37.321Z,6.40
2023-04-06T11:27:09.013Z,7.33
2023-04-06T11:29:38.905Z,8.57
2023-04-06T11:32:08.708Z,8.93
2023-04-06T11:34:39.563Z,10.40
2023-04-06T11:37:10.935Z,5.93
2023-04-06T11:39:42.199Z,7.37
2023-04-06T11:42:11.577Z,7.63
2023-04-06T11:44:42.531Z,8.43
2023-04-06T11:47:12.583Z,6.43
2023-04-06T11:49:42.492Z,6.90
2023-04-06T11:52:22.259Z,9.03
2023-04-06T11:54:52.691Z,5.63
2023-04-06T11:57:24.053Z,7.50
2023-04-06T11:59:52.428Z,6.83
2023-04-06T12:02:21.186Z,7.00
2023-04-06T12:04:50.335Z,7.37
2023-04-06T12:07:22.030Z,6.23
2023-04-06T12:09:50.314Z,5.50
2023-04-06T12:12:22.280Z,8.37
2023-04-06T12:14:53.354Z,6.53
2023-04-06T12:17:22.464Z,5.77
2023-04-06T12:19:51.885Z,6.97
2023-04-06T12:22:20.324Z,5.97
2023-04-06T12:24:48.966Z,6.23
2023-04-06T12:27:18.703Z,7.13
2023-04-06T12:29:47.194Z,6.77
2023-04-06T12:32:20.072Z,6.83
2023-04-06T12:34:48.376Z,5.70
2023-04-06T12:37:16.709Z,6.00
2023-04-06T12:39:45.816Z,6.50
2023-04-06T12:42:15.070Z,5.80
2023-04-06T12:44:46.304Z,6.13
2023-04-06T12:47:14.357Z,7.43
2023-04-06T12:49:44.256Z,6.40
2023-04-06T12:52:12.871Z,7.43
2023-04-06T12:54:40.886Z,5.90
2023-04-06T12:57:09.112Z,5.73
2023-04-06T12:59:38.197Z,5.47
2023-04-06T13:02:07.264Z,5.80
2023-04-06T13:04:35.463Z,5.10
2023-04-06T13:07:09.321Z,6.20
2023-04-06T13:09:37.732Z,6.00
2023-04-06T13:12:06.315Z,6.00
2023-04-06T13:14:34.994Z,6.90
2023-04-06T13:17:06.060Z,5.80
2023-04-06T13:19:35.660Z,5.70
2023-04-06T13:22:03.984Z,5.40
2023-04-06T13:24:34.450Z,4.87
2023-04-06T13:27:04.997Z,5.30
2023-04-06T13:29:38.425Z,4.70
2023-04-06T13:32:07.492Z,5.60
2023-04-06T13:34:35.577Z,5.33
2023-04-06T13:37:03.640Z,5.13
2023-04-06T13:39:33.481Z,4.70
2023-04-06T13:42:04.138Z,5.40
2023-04-06T13:44:32.794Z,4.57
2023-04-06T13:47:02.471Z,5.00
2023-04-06T13:49:31.173Z,5.47
2023-04-06T13:52:03.578Z,5.30
2023-04-06T13:54:33.241Z,4.90
2023-04-06T13:57:01.453Z,5.50
2023-04-06T13:59:34.839Z,5.50
2023-04-06T14:02:04.367Z,5.40
2023-04-06T14:04:32.555Z,5.43
2023-04-06T14:07:01.827Z,5.43
2023-04-06T14:09:30.230Z,4.93
2023-04-06T14:11:59.707Z,5.20
2023-04-06T14:14:27.893Z,5.00
2023-04-06T14:16:58.544Z,4.00
2023-04-06T14:19:26.529Z,5.33
2023-04-06T14:21:55.396Z,4.07
2023-04-06T14:24:23.649Z,4.73
2023-04-06T14:26:51.768Z,4.10
2023-04-06T14:29:21.270Z,4.67
2023-04-06T14:31:50.407Z,3.80
2023-04-06T14:34:20.494Z,4.57
2023-04-06T14:36:48.745Z,4.77
2023-04-06T14:39:18.207Z,4.90
2023-04-06T14:41:49.895Z,4.40
2023-04-06T14:44:23.302Z,6.03
2023-04-06T14:46:51.799Z,4.30
2023-04-06T14:49:19.961Z,5.90
2023-04-06T14:51:50.301Z,5.40
2023-04-06T14:54:18.194Z,5.13
2023-04-06T14:56:46.171Z,4.87
2023-04-06T14:59:14.641Z,4.60
2023-04-06T15:01:44.085Z,4.80
2023-04-06T15:04:12.227Z,4.70
2023-04-06T15:06:40.806Z,4.20
2023-04-06T15:09:08.741Z,4.20
2023-04-06T15:11:37.013Z,4.67
2023-04-06T15:14:08.249Z,4.27
2023-04-06T15:16:36.364Z,4.80
2023-04-06T15:19:05.764Z,4.20
2023-04-06T15:21:33.658Z,4.67
2023-04-06T15:24:03.005Z,4.80
2023-04-06T15:26:31.527Z,4.50
2023-04-06T15:29:03.327Z,4.30
2023-04-06T15:31:38.085Z,4.00
2023-04-06T15:34:09.618Z,4.80
2023-04-06T15:36:39.027Z,4.00
2023-04-06T15:39:09.671Z,6.77
2023-04-06T15:41:38.177Z,5.50
2023-04-06T15:44:06.946Z,4.43
2023-04-06T15:46:36.221Z,4.83
2023-04-06T15:49:07.800Z,5.07
2023-04-06T15:51:43.021Z,4.33
2023-04-06T15:54:11.049Z,4.63
2023-04-06T15:56:40.011Z,5.53
2023-04-06T15:59:10.565Z,5.23
2023-04-06T16:01:43.439Z,4.13
2023-04-06T16:04:12.371Z,4.50
2023-04-06T16:06:42.258Z,5.00
2023-04-06T16:09:10.379Z,5.30
2023-04-06T16:11:38.451Z,4.97
2023-04-06T16:14:06.320Z,4.20
2023-04-06T16:16:34.270Z,4.70
2023-04-06T16:19:04.351Z,4.60
2023-04-06T16:21:32.375Z,4.53
2023-04-06T16:24:02.920Z,4.73
2023-04-06T16:26:31.830Z,4.33
2023-04-06T16:29:00.409Z,4.87
2023-04-06T16:31:28.770Z,4.60
2023-04-06T16:33:57.942Z,5.20
2023-04-06T16:36:27.283Z,4.87
2023-04-06T16:38:55.987Z,5.07
2023-04-06T16:41:26.574Z,4.83
2023-04-06T16:43:57.145Z,9.40
2023-04-06T16:46:31.593Z,5.33
2023-04-06T16:48:59.926Z,4.70
2023-04-06T16:51:29.185Z,5.07
2023-04-06T16:53:57.308Z,5.23
2023-04-06T16:56:27.292Z,5.20
2023-04-06T16:58:55.896Z,4.73
2023-04-06T17:01:26.396Z,5.00
2023-04-06T17:03:55.156Z,5.03
2023-04-06T17:06:23.694Z,5.17
2023-04-06T17:08:53.593Z,5.20
2023-04-06T17:11:27.770Z,5.90
2023-04-06T17:13:59.577Z,4.87
2023-04-06T17:16:29.774Z,4.30
2023-04-06T17:18:58.243Z,4.27
2023-04-06T17:21:26.253Z,3.83
2023-04-06T17:23:54.484Z,3.33
2023-04-06T17:26:22.684Z,3.70
2023-04-06T17:28:53.021Z,3.80
2023-04-06T17:31:25.150Z,3.47
2023-04-06T17:33:53.336Z,2.87
2023-04-06T17:36:21.991Z,3.30
2023-04-06T17:38:50.589Z,3.10
2023-04-06T17:41:21.563Z,3.10
2023-04-06T17:43:51.506Z,3.23
2023-04-06T17:46:20.527Z,3.50
2023-04-06T17:48:51.895Z,3.07
2023-04-06T17:51:21.443Z,3.00
2023-04-06T17:53:49.346Z,3.13
2023-04-06T17:56:17.638Z,3.17
2023-04-06T17:58:45.814Z,2.70
2023-04-06T18:01:14.595Z,2.93
2023-04-06T18:03:42.942Z,3.47
2023-04-06T18:06:15.133Z,3.80
2023-04-06T18:08:46.462Z,2.83
2023-04-06T18:11:18.664Z,3.57
2023-04-06T18:13:48.613Z,4.50
2023-04-06T18:16:20.147Z,2.90
2023-04-06T18:18:48.945Z,2.10
2023-04-06T18:21:21.300Z,2.63
2023-04-06T18:23:49.528Z,2.80
2023-04-06T18:26:21.421Z,2.80
2023-04-06T18:28:51.788Z,2.03
2023-04-06T18:31:21.606Z,2.20
2023-04-06T18:33:51.144Z,2.77
2023-04-06T18:36:23.002Z,2.37
2023-04-06T18:38:50.835Z,2.50
2023-04-06T18:41:20.670Z,3.17
2023-04-06T18:43:51.387Z,2.63
2023-04-06T18:46:20.529Z,2.80
2023-04-06T18:48:51.330Z,3.17
2023-04-06T18:51:21.200Z,2.03
2023-04-06T18:53:51.497Z,3.00
2023-04-06T18:56:21.715Z,3.10
2023-04-06T18:58:50.043Z,2.50
2023-04-06T19:01:22.414Z,3.00
2023-04-06T19:03:50.825Z,3.63
2023-04-06T19:06:18.957Z,3.07
2023-04-06T19:08:49.239Z,3.90
2023-04-06T19:11:19.642Z,2.80
2023-04-06T19:13:49.953Z,2.77
2023-04-06T19:16:19.130Z,2.83
2023-04-06T19:18:47.240Z,2.60
2023-04-06T19:21:17.031Z,2.90
2023-04-06T19:23:45.619Z,3.40
2023-04-06T19:26:15.750Z,3.40
2023-04-06T19:28:44.382Z,3.57
2023-04-06T19:31:14.415Z,3.33
2023-04-06T19:33:42.503Z,3.00
2023-04-06T19:36:12.931Z,3.07
2023-04-06T19:38:41.161Z,3.13
2023-04-06T19:41:09.898Z,3.40
2023-04-06T19:43:42.313Z,4.13
2023-04-06T19:46:10.756Z,3.77
2023-04-06T19:48:39.037Z,4.00
2023-04-06T19:51:07.029Z,2.90
2023-04-06T19:53:34.985Z,3.70
2023-04-06T19:56:04.054Z,3.23
2023-04-06T19:58:33.190Z,3.47
2023-04-06T20:01:04.376Z,3.73
2023-04-06T20:03:32.897Z,3.17
2023-04-06T20:06:01.128Z,3.50
2023-04-06T20:08:30.367Z,3.87
2023-04-06T20:11:02.065Z,3.27
2023-04-06T20:13:30.410Z,3.10
2023-04-06T20:16:03.080Z,3.57
2023-04-06T20:18:32.539Z,3.77
2023-04-06T20:21:02.726Z,3.67
2023-04-06T20:23:31.834Z,3.93
2023-04-06T20:25:59.862Z,3.43
2023-04-06T20:28:28.675Z,4.10
2023-04-06T20:30:56.867Z,3.40
2023-04-06T20:33:26.037Z,3.90
2023-04-06T20:35:58.341Z,3.90
2023-04-06T20:38:33.039Z,4.10
2023-04-06T20:41:02.381Z,4.27
2023-04-06T20:43:31.906Z,4.03
2023-04-06T20:46:02.209Z,3.67
2023-04-06T20:48:36.383Z,4.10
2023-04-06T20:51:05.781Z,4.23
2023-04-06T20:53:36.951Z,4.37
2023-04-06T20:56:05.145Z,4.87
2023-04-06T20:58:33.004Z,5.27
2023-04-06T21:01:01.189Z,4.60
2023-04-06T21:03:29.186Z,4.90
2023-04-06T21:05:59.934Z,5.60
2023-04-06T21:08:28.150Z,5.83
2023-04-06T21:10:56.224Z,5.00
2023-04-06T21:13:24.286Z,5.00
2023-04-06T21:15:52.836Z,4.83
2023-04-06T21:18:22.139Z,4.83
2023-04-06T21:20:51.382Z,5.37
2023-04-06T21:23:23.033Z,5.40
2023-04-06T21:25:52.117Z,4.40
2023-04-06T21:28:20.502Z,4.40
2023-04-06T21:30:48.386Z,5.03
2023-04-06T21:33:16.353Z,5.20
2023-04-06T21:35:44.250Z,5.20
2023-04-06T21:38:12.475Z,5.50
2023-04-06T21:40:44.058Z,6.00
2023-04-06T21:43:14.780Z,5.40
2023-04-06T21:45:50.408Z,6.50
2023-04-06T21:48:18.929Z,7.17
2023-04-06T21:50:46.879Z,5.70
2023-04-06T21:53:14.810Z,5.50
2023-04-06T21:55:47.002Z,6.03
2023-04-06T21:58:16.016Z,6.50
2023-04-06T22:00:46.426Z,6.53
2023-04-06T22:03:14.449Z,7.40
2023-04-06T22:05:42.368Z,6.03
2023-04-06T22:08:17.806Z,7.20
2023-04-06T22:10:55.262Z,7.20
2023-04-06T22:13:27.646Z,6.90
2023-04-06T22:15:55.747Z,7.20
2023-04-06T22:18:24.107Z,6.77
2023-04-06T22:20:52.185Z,6.90
2023-04-06T22:23:20.953Z,6.47
2023-04-06T22:25:49.211Z,6.60
2023-04-06T22:28:18.527Z,6.50
2023-04-06T22:30:46.723Z,5.97
2023-04-06T22:33:15.130Z,6.50
2023-04-06T22:35:45.410Z,7.10
2023-04-06T22:38:13.516Z,7.00
2023-04-06T22:40:41.968Z,6.97
2023-04-06T22:43:09.853Z,6.93
2023-04-06T22:45:39.173Z,7.00
2023-04-06T22:48:07.416Z,8.00
2023-04-06T22:50:35.354Z,7.43
2023-04-06T22:53:03.296Z,6.53
2023-04-06T22:55:31.395Z,7.93
2023-04-06T22:57:59.697Z,7.17
2023-04-06T23:00:27.800Z,7.90
2023-04-06T23:02:57.366Z,7.87
2023-04-06T23:05:26.252Z,7.43
2023-04-06T23:07:58.941Z,7.10
2023-04-06T23:10:26.881Z,7.00
2023-04-06T23:12:57.600Z,7.57
2023-04-06T23:15:26.115Z,7.97
2023-04-06T23:17:54.477Z,7.53
2023-04-06T23:20:24.314Z,7.33
2023-04-06T23:22:52.763Z,7.40
2023-04-06T23:25:21.187Z,7.50
2023-04-06T23:27:49.451Z,7.67
2023-04-06T23:30:17.472Z,7.00
2023-04-06T23:32:45.814Z,8.30
2023-04-06T23:35:14.303Z,7.60
2023-04-06T23:37:43.635Z,8.00
2023-04-06T23:40:12.335Z,7.30
2023-04-06T23:42:42.492Z,8.40
2023-04-06T23:45:11.278Z,8.97
2023-04-06T23:47:46.782Z,7.97
2023-04-06T23:50:15.077Z,8.73
2023-04-06T23:52:44.302Z,8.70
2023-04-06T23:55:12.511Z,8.40
2023-04-06T23:57:40.516Z,8.50
